sensor_id;sensor_type;location;lat;lon;timestamp;P1;durP1;ratioP1;P2;durP2;ratioP2
25731;SDS011;13585;50.864;4.406;2023-03-31T00:02:24;4.00;;;2.53;;
25731;SDS011;13585;50.864;4.406;2023-03-31T00:04:49;4.72;;;2.53;;
25731;SDS011;13585;50.864;4.406;2023-03-31T00:07:19;3.95;;;2.58;;
25731;SDS011;13585;50.864;4.406;2023-03-31T00:09:47;4.95;;;3.08;;
25731;SDS011;13585;50.864;4.406;2023-03-31T00:12:13;4.65;;;2.45;;
25731;SDS011;13585;50.864;4.406;2023-03-31T00:14:40;4.70;;;2.65;;
25731;SDS011;13585;50.864;4.406;2023-03-31T00:17:07;5.05;;;2.70;;
25731;SDS011;13585;50.864;4.406;2023-03-31T00:19:33;4.78;;;2.38;;
25731;SDS011;13585;50.864;4.406;2023-03-31T00:21:59;3.92;;;2.45;;
25731;SDS011;13585;50.864;4.406;2023-03-31T00:24:29;3.17;;;2.22;;
25731;SDS011;13585;50.864;4.406;2023-03-31T00:26:58;4.53;;;2.50;;
25731;SDS011;13585;50.864;4.406;2023-03-31T00:29:25;4.00;;;2.30;;
25731;SDS011;13585;50.864;4.406;2023-03-31T00:31:50;4.63;;;2.38;;
25731;SDS011;13585;50.864;4.406;2023-03-31T00:34:16;5.85;;;2.72;;
25731;SDS011;13585;50.864;4.406;2023-03-31T00:36:42;4.03;;;2.50;;
25731;SDS011;13585;50.864;4.406;2023-03-31T00:39:14;4.38;;;2.50;;
25731;SDS011;13585;50.864;4.406;2023-03-31T00:41:42;4.22;;;2.20;;
25731;SDS011;13585;50.864;4.406;2023-03-31T00:44:15;4.60;;;2.17;;
25731;SDS011;13585;50.864;4.406;2023-03-31T00:49:22;6.68;;;2.63;;
25731;SDS011;13585;50.864;4.406;2023-03-31T00:51:59;6.15;;;2.33;;
25731;SDS011;13585;50.864;4.406;2023-03-31T00:54:31;5.15;;;2.40;;
25731;SDS011;13585;50.864;4.406;2023-03-31T00:57:00;5.03;;;2.60;;
25731;SDS011;13585;50.864;4.406;2023-03-31T00:59:29;3.97;;;2.50;;
25731;SDS011;13585;50.864;4.406;2023-03-31T01:01:56;4.28;;;2.53;;
25731;SDS011;13585;50.864;4.406;2023-03-31T01:04:26;5.63;;;2.50;;
25731;SDS011;13585;50.864;4.406;2023-03-31T01:09:37;5.70;;;2.45;;
25731;SDS011;13585;50.864;4.406;2023-03-31T01:12:05;4.70;;;2.55;;
25731;SDS011;13585;50.864;4.406;2023-03-31T01:14:32;5.25;;;2.30;;
25731;SDS011;13585;50.864;4.406;2023-03-31T01:16:59;5.03;;;2.17;;
25731;SDS011;13585;50.864;4.406;2023-03-31T01:19:39;3.95;;;2.08;;
25731;SDS011;13585;50.864;4.406;2023-03-31T01:28:46;4.78;;;2.10;;
25731;SDS011;13585;50.864;4.406;2023-03-31T01:47:58;4.45;;;2.20;;
25731;SDS011;13585;50.864;4.406;2023-03-31T01:50:36;4.05;;;1.95;;
25731;SDS011;13585;50.864;4.406;2023-03-31T01:53:15;4.55;;;2.47;;
25731;SDS011;13585;50.864;4.406;2023-03-31T01:55:49;4.25;;;2.22;;
25731;SDS011;13585;50.864;4.406;2023-03-31T01:58:39;5.45;;;2.28;;
25731;SDS011;13585;50.864;4.406;2023-03-31T02:01:15;4.82;;;2.30;;
25731;SDS011;13585;50.864;4.406;2023-03-31T02:03:54;3.45;;;1.92;;
25731;SDS011;13585;50.864;4.406;2023-03-31T02:06:27;4.80;;;2.40;;
25731;SDS011;13585;50.864;4.406;2023-03-31T02:09:03;3.47;;;1.80;;
25731;SDS011;13585;50.864;4.406;2023-03-31T02:11:34;4.80;;;2.42;;
25731;SDS011;13585;50.864;4.406;2023-03-31T02:14:02;5.63;;;2.15;;
25731;SDS011;13585;50.864;4.406;2023-03-31T02:16:33;4.78;;;1.90;;
25731;SDS011;13585;50.864;4.406;2023-03-31T02:19:05;4.45;;;1.98;;
25731;SDS011;13585;50.864;4.406;2023-03-31T02:21:33;4.03;;;2.00;;
25731;SDS011;13585;50.864;4.406;2023-03-31T02:24:07;4.22;;;2.05;;
25731;SDS011;13585;50.864;4.406;2023-03-31T02:26:37;2.72;;;1.60;;
25731;SDS011;13585;50.864;4.406;2023-03-31T02:29:07;3.88;;;1.70;;
25731;SDS011;13585;50.864;4.406;2023-03-31T02:34:10;4.45;;;2.17;;
25731;SDS011;13585;50.864;4.406;2023-03-31T02:36:36;4.95;;;1.98;;
25731;SDS011;13585;50.864;4.406;2023-03-31T02:39:06;4.15;;;1.85;;
25731;SDS011;13585;50.864;4.406;2023-03-31T02:41:34;3.50;;;2.25;;
25731;SDS011;13585;50.864;4.406;2023-03-31T02:44:00;4.57;;;2.10;;
25731;SDS011;13585;50.864;4.406;2023-03-31T02:46:26;3.28;;;1.73;;
25731;SDS011;13585;50.864;4.406;2023-03-31T02:48:56;4.88;;;2.28;;
25731;SDS011;13585;50.864;4.406;2023-03-31T03:12:24;5.85;;;1.70;;
25731;SDS011;13585;50.864;4.406;2023-03-31T03:15:25;3.33;;;2.08;;
25731;SDS011;13585;50.864;4.406;2023-03-31T03:17:57;4.88;;;2.00;;
25731;SDS011;13585;50.864;4.406;2023-03-31T03:20:23;4.03;;;2.10;;
25731;SDS011;13585;50.864;4.406;2023-03-31T03:22:49;3.40;;;1.90;;
25731;SDS011;13585;50.864;4.406;2023-03-31T03:25:15;4.57;;;1.88;;
25731;SDS011;13585;50.864;4.406;2023-03-31T03:27:42;4.45;;;2.05;;
25731;SDS011;13585;50.864;4.406;2023-03-31T03:30:08;4.07;;;2.10;;
25731;SDS011;13585;50.864;4.406;2023-03-31T03:32:35;3.15;;;2.00;;
25731;SDS011;13585;50.864;4.406;2023-03-31T03:35:02;3.22;;;1.85;;
25731;SDS011;13585;50.864;4.406;2023-03-31T03:37:29;3.80;;;1.80;;
25731;SDS011;13585;50.864;4.406;2023-03-31T03:39:55;3.45;;;1.67;;
25731;SDS011;13585;50.864;4.406;2023-03-31T03:42:21;3.90;;;1.85;;
25731;SDS011;13585;50.864;4.406;2023-03-31T03:44:46;4.57;;;1.60;;
25731;SDS011;13585;50.864;4.406;2023-03-31T03:47:12;3.83;;;1.80;;
25731;SDS011;13585;50.864;4.406;2023-03-31T03:49:38;2.60;;;1.50;;
25731;SDS011;13585;50.864;4.406;2023-03-31T03:52:03;3.78;;;1.77;;
25731;SDS011;13585;50.864;4.406;2023-03-31T03:54:29;2.97;;;1.65;;
25731;SDS011;13585;50.864;4.406;2023-03-31T03:56:55;3.15;;;1.65;;
25731;SDS011;13585;50.864;4.406;2023-03-31T03:59:20;2.55;;;1.60;;
25731;SDS011;13585;50.864;4.406;2023-03-31T04:01:46;4.13;;;1.75;;
25731;SDS011;13585;50.864;4.406;2023-03-31T04:04:12;5.47;;;2.15;;
25731;SDS011;13585;50.864;4.406;2023-03-31T04:06:37;2.45;;;1.50;;
25731;SDS011;13585;50.864;4.406;2023-03-31T04:09:03;3.67;;;2.00;;
25731;SDS011;13585;50.864;4.406;2023-03-31T04:11:29;3.70;;;1.70;;
25731;SDS011;13585;50.864;4.406;2023-03-31T04:13:55;3.58;;;1.63;;
25731;SDS011;13585;50.864;4.406;2023-03-31T04:16:20;2.85;;;1.30;;
25731;SDS011;13585;50.864;4.406;2023-03-31T04:18:49;3.03;;;1.52;;
25731;SDS011;13585;50.864;4.406;2023-03-31T04:21:21;2.67;;;1.60;;
25731;SDS011;13585;50.864;4.406;2023-03-31T04:23:51;5.10;;;1.90;;
25731;SDS011;13585;50.864;4.406;2023-03-31T04:26:26;4.65;;;2.10;;
25731;SDS011;13585;50.864;4.406;2023-03-31T04:29:03;3.75;;;1.65;;
25731;SDS011;13585;50.864;4.406;2023-03-31T04:31:29;2.72;;;1.60;;
25731;SDS011;13585;50.864;4.406;2023-03-31T04:33:55;3.13;;;1.98;;
25731;SDS011;13585;50.864;4.406;2023-03-31T04:36:26;2.88;;;1.60;;
25731;SDS011;13585;50.864;4.406;2023-03-31T04:38:53;2.38;;;1.42;;
25731;SDS011;13585;50.864;4.406;2023-03-31T04:41:22;1.92;;;1.38;;
25731;SDS011;13585;50.864;4.406;2023-03-31T04:43:48;3.08;;;1.52;;
25731;SDS011;13585;50.864;4.406;2023-03-31T04:46:14;3.65;;;1.80;;
25731;SDS011;13585;50.864;4.406;2023-03-31T04:48:40;2.80;;;1.65;;
25731;SDS011;13585;50.864;4.406;2023-03-31T04:51:06;2.00;;;1.15;;
25731;SDS011;13585;50.864;4.406;2023-03-31T04:53:33;2.95;;;1.42;;
25731;SDS011;13585;50.864;4.406;2023-03-31T04:55:58;2.97;;;1.38;;
25731;SDS011;13585;50.864;4.406;2023-03-31T04:58:24;2.53;;;1.38;;
25731;SDS011;13585;50.864;4.406;2023-03-31T05:00:50;2.95;;;1.40;;
25731;SDS011;13585;50.864;4.406;2023-03-31T05:03:16;2.45;;;1.42;;
25731;SDS011;13585;50.864;4.406;2023-03-31T05:05:42;3.35;;;1.55;;
25731;SDS011;13585;50.864;4.406;2023-03-31T05:08:07;2.15;;;1.35;;
25731;SDS011;13585;50.864;4.406;2023-03-31T05:10:33;3.60;;;1.58;;
25731;SDS011;13585;50.864;4.406;2023-03-31T05:12:59;2.03;;;1.20;;
25731;SDS011;13585;50.864;4.406;2023-03-31T05:15:25;2.95;;;1.40;;
25731;SDS011;13585;50.864;4.406;2023-03-31T05:17:50;2.25;;;1.30;;
25731;SDS011;13585;50.864;4.406;2023-03-31T05:20:17;5.22;;;1.50;;
25731;SDS011;13585;50.864;4.406;2023-03-31T05:22:44;2.55;;;1.40;;
25731;SDS011;13585;50.864;4.406;2023-03-31T05:25:10;3.28;;;1.55;;
25731;SDS011;13585;50.864;4.406;2023-03-31T05:27:42;2.72;;;1.23;;
25731;SDS011;13585;50.864;4.406;2023-03-31T05:30:09;2.38;;;1.50;;
25731;SDS011;13585;50.864;4.406;2023-03-31T05:32:35;2.40;;;1.40;;
25731;SDS011;13585;50.864;4.406;2023-03-31T05:35:00;2.60;;;1.20;;
25731;SDS011;13585;50.864;4.406;2023-03-31T05:37:26;3.35;;;1.50;;
25731;SDS011;13585;50.864;4.406;2023-03-31T05:39:51;4.53;;;1.73;;
25731;SDS011;13585;50.864;4.406;2023-03-31T05:42:17;3.58;;;1.60;;
25731;SDS011;13585;50.864;4.406;2023-03-31T05:44:43;3.88;;;1.42;;
25731;SDS011;13585;50.864;4.406;2023-03-31T05:47:09;4.05;;;1.73;;
25731;SDS011;13585;50.864;4.406;2023-03-31T05:49:35;2.47;;;1.35;;
25731;SDS011;13585;50.864;4.406;2023-03-31T05:52:02;2.97;;;1.55;;
25731;SDS011;13585;50.864;4.406;2023-03-31T05:54:28;4.65;;;1.70;;
25731;SDS011;13585;50.864;4.406;2023-03-31T05:56:54;3.22;;;1.52;;
25731;SDS011;13585;50.864;4.406;2023-03-31T05:59:20;2.85;;;1.50;;
25731;SDS011;13585;50.864;4.406;2023-03-31T06:01:46;3.15;;;1.85;;
25731;SDS011;13585;50.864;4.406;2023-03-31T06:04:11;5.18;;;1.63;;
25731;SDS011;13585;50.864;4.406;2023-03-31T06:06:37;3.17;;;1.63;;
25731;SDS011;13585;50.864;4.406;2023-03-31T06:09:03;4.75;;;1.55;;
25731;SDS011;13585;50.864;4.406;2023-03-31T06:11:29;2.72;;;1.50;;
25731;SDS011;13585;50.864;4.406;2023-03-31T06:13:55;2.78;;;1.40;;
25731;SDS011;13585;50.864;4.406;2023-03-31T06:16:21;3.05;;;1.40;;
25731;SDS011;13585;50.864;4.406;2023-03-31T06:18:47;4.88;;;1.73;;
25731;SDS011;13585;50.864;4.406;2023-03-31T06:21:15;3.40;;;1.40;;
25731;SDS011;13585;50.864;4.406;2023-03-31T06:23:42;3.55;;;1.60;;
25731;SDS011;13585;50.864;4.406;2023-03-31T06:26:12;2.83;;;1.42;;
25731;SDS011;13585;50.864;4.406;2023-03-31T06:28:39;3.85;;;1.45;;
25731;SDS011;13585;50.864;4.406;2023-03-31T06:31:06;3.55;;;1.45;;
25731;SDS011;13585;50.864;4.406;2023-03-31T06:33:34;3.78;;;1.60;;
25731;SDS011;13585;50.864;4.406;2023-03-31T06:36:00;3.80;;;1.40;;
25731;SDS011;13585;50.864;4.406;2023-03-31T06:38:28;2.85;;;1.30;;
25731;SDS011;13585;50.864;4.406;2023-03-31T06:40:54;3.78;;;1.75;;
25731;SDS011;13585;50.864;4.406;2023-03-31T06:43:19;2.58;;;1.35;;
25731;SDS011;13585;50.864;4.406;2023-03-31T06:45:45;4.22;;;2.38;;
25731;SDS011;13585;50.864;4.406;2023-03-31T06:48:11;2.75;;;1.35;;
25731;SDS011;13585;50.864;4.406;2023-03-31T06:50:38;3.78;;;1.42;;
25731;SDS011;13585;50.864;4.406;2023-03-31T06:53:05;4.20;;;1.77;;
25731;SDS011;13585;50.864;4.406;2023-03-31T06:55:31;4.22;;;1.60;;
25731;SDS011;13585;50.864;4.406;2023-03-31T06:57:58;4.13;;;1.50;;
25731;SDS011;13585;50.864;4.406;2023-03-31T07:00:23;4.03;;;1.63;;
25731;SDS011;13585;50.864;4.406;2023-03-31T07:02:51;5.30;;;1.58;;
25731;SDS011;13585;50.864;4.406;2023-03-31T07:05:17;4.22;;;1.85;;
25731;SDS011;13585;50.864;4.406;2023-03-31T07:07:43;3.17;;;1.45;;
25731;SDS011;13585;50.864;4.406;2023-03-31T07:10:09;3.20;;;1.42;;
25731;SDS011;13585;50.864;4.406;2023-03-31T07:12:35;3.25;;;1.55;;
25731;SDS011;13585;50.864;4.406;2023-03-31T07:15:01;5.10;;;1.70;;
25731;SDS011;13585;50.864;4.406;2023-03-31T07:17:27;3.03;;;1.33;;
25731;SDS011;13585;50.864;4.406;2023-03-31T07:19:53;3.40;;;1.50;;
25731;SDS011;13585;50.864;4.406;2023-03-31T07:22:18;4.00;;;1.52;;
25731;SDS011;13585;50.864;4.406;2023-03-31T07:24:44;4.53;;;1.48;;
25731;SDS011;13585;50.864;4.406;2023-03-31T07:27:10;3.75;;;1.30;;
25731;SDS011;13585;50.864;4.406;2023-03-31T07:29:35;3.88;;;1.58;;
25731;SDS011;13585;50.864;4.406;2023-03-31T07:32:01;2.72;;;1.40;;
25731;SDS011;13585;50.864;4.406;2023-03-31T07:34:27;5.03;;;1.55;;
25731;SDS011;13585;50.864;4.406;2023-03-31T07:36:56;4.30;;;2.10;;
25731;SDS011;13585;50.864;4.406;2023-03-31T07:39:21;3.20;;;1.55;;
25731;SDS011;13585;50.864;4.406;2023-03-31T07:41:47;4.10;;;1.50;;
25731;SDS011;13585;50.864;4.406;2023-03-31T07:44:12;3.10;;;1.42;;
25731;SDS011;13585;50.864;4.406;2023-03-31T07:46:39;4.78;;;1.63;;
25731;SDS011;13585;50.864;4.406;2023-03-31T07:49:05;3.67;;;1.67;;
25731;SDS011;13585;50.864;4.406;2023-03-31T07:51:31;4.65;;;1.65;;
25731;SDS011;13585;50.864;4.406;2023-03-31T07:53:58;3.70;;;1.67;;
25731;SDS011;13585;50.864;4.406;2023-03-31T07:56:23;4.32;;;1.10;;
25731;SDS011;13585;50.864;4.406;2023-03-31T07:58:49;5.32;;;1.80;;
25731;SDS011;13585;50.864;4.406;2023-03-31T08:01:17;5.55;;;1.52;;
25731;SDS011;13585;50.864;4.406;2023-03-31T08:03:45;5.05;;;1.40;;
25731;SDS011;13585;50.864;4.406;2023-03-31T08:06:16;6.40;;;1.52;;
25731;SDS011;13585;50.864;4.406;2023-03-31T08:08:43;4.13;;;1.73;;
25731;SDS011;13585;50.864;4.406;2023-03-31T08:11:11;4.17;;;1.60;;
25731;SDS011;13585;50.864;4.406;2023-03-31T08:13:38;3.45;;;1.33;;
25731;SDS011;13585;50.864;4.406;2023-03-31T08:16:03;4.70;;;1.73;;
25731;SDS011;13585;50.864;4.406;2023-03-31T08:18:29;4.80;;;1.83;;
25731;SDS011;13585;50.864;4.406;2023-03-31T08:20:55;3.15;;;1.30;;
25731;SDS011;13585;50.864;4.406;2023-03-31T08:23:20;3.50;;;1.50;;
25731;SDS011;13585;50.864;4.406;2023-03-31T08:25:46;3.15;;;1.50;;
25731;SDS011;13585;50.864;4.406;2023-03-31T08:28:12;3.47;;;1.48;;
25731;SDS011;13585;50.864;4.406;2023-03-31T08:30:38;5.47;;;1.48;;
25731;SDS011;13585;50.864;4.406;2023-03-31T08:33:04;3.53;;;1.40;;
25731;SDS011;13585;50.864;4.406;2023-03-31T08:35:31;2.78;;;1.30;;
25731;SDS011;13585;50.864;4.406;2023-03-31T08:37:58;4.32;;;1.63;;
25731;SDS011;13585;50.864;4.406;2023-03-31T08:40:25;5.03;;;1.95;;
25731;SDS011;13585;50.864;4.406;2023-03-31T08:42:52;4.25;;;1.70;;
25731;SDS011;13585;50.864;4.406;2023-03-31T08:45:28;3.92;;;1.48;;
25731;SDS011;13585;50.864;4.406;2023-03-31T08:50:30;2.63;;;1.25;;
25731;SDS011;13585;50.864;4.406;2023-03-31T08:55:42;2.80;;;1.40;;
25731;SDS011;13585;50.864;4.406;2023-03-31T09:09:32;4.78;;;1.80;;
25731;SDS011;13585;50.864;4.406;2023-03-31T09:12:19;3.25;;;1.58;;
25731;SDS011;13585;50.864;4.406;2023-03-31T09:14:53;3.13;;;1.48;;
25731;SDS011;13585;50.864;4.406;2023-03-31T09:17:26;6.35;;;1.90;;
25731;SDS011;13585;50.864;4.406;2023-03-31T09:20:03;5.32;;;1.63;;
25731;SDS011;13585;50.864;4.406;2023-03-31T09:25:37;3.47;;;1.70;;
25731;SDS011;13585;50.864;4.406;2023-03-31T09:28:06;5.28;;;1.60;;
25731;SDS011;13585;50.864;4.406;2023-03-31T09:30:42;5.78;;;1.92;;
25731;SDS011;13585;50.864;4.406;2023-03-31T09:35:51;4.65;;;1.50;;
25731;SDS011;13585;50.864;4.406;2023-03-31T09:38:17;5.03;;;1.42;;
25731;SDS011;13585;50.864;4.406;2023-03-31T09:40:42;5.55;;;1.63;;
25731;SDS011;13585;50.864;4.406;2023-03-31T09:45:47;5.80;;;1.50;;
25731;SDS011;13585;50.864;4.406;2023-03-31T09:48:15;3.85;;;1.77;;
25731;SDS011;13585;50.864;4.406;2023-03-31T09:50:46;4.28;;;1.75;;
25731;SDS011;13585;50.864;4.406;2023-03-31T09:53:17;3.97;;;2.08;;
25731;SDS011;13585;50.864;4.406;2023-03-31T09:56:08;4.18;;;1.67;;
25731;SDS011;13585;50.864;4.406;2023-03-31T09:58:42;4.28;;;1.52;;
25731;SDS011;13585;50.864;4.406;2023-03-31T10:01:10;3.28;;;1.58;;
25731;SDS011;13585;50.864;4.406;2023-03-31T10:03:55;4.38;;;1.75;;
25731;SDS011;13585;50.864;4.406;2023-03-31T10:06:22;5.40;;;1.92;;
25731;SDS011;13585;50.864;4.406;2023-03-31T10:11:18;3.35;;;1.60;;
25731;SDS011;13585;50.864;4.406;2023-03-31T10:13:46;4.85;;;1.80;;
25731;SDS011;13585;50.864;4.406;2023-03-31T10:16:22;6.18;;;2.13;;
25731;SDS011;13585;50.864;4.406;2023-03-31T10:18:52;5.22;;;1.70;;
25731;SDS011;13585;50.864;4.406;2023-03-31T10:21:24;5.63;;;1.92;;
25731;SDS011;13585;50.864;4.406;2023-03-31T10:23:52;5.18;;;1.90;;
25731;SDS011;13585;50.864;4.406;2023-03-31T10:26:20;8.40;;;2.20;;
25731;SDS011;13585;50.864;4.406;2023-03-31T10:28:49;4.65;;;1.60;;
25731;SDS011;13585;50.864;4.406;2023-03-31T10:31:17;5.30;;;1.95;;
25731;SDS011;13585;50.864;4.406;2023-03-31T10:33:45;4.63;;;1.75;;
25731;SDS011;13585;50.864;4.406;2023-03-31T10:36:21;6.22;;;1.95;;
25731;SDS011;13585;50.864;4.406;2023-03-31T10:38:53;5.03;;;1.50;;
25731;SDS011;13585;50.864;4.406;2023-03-31T10:41:20;6.25;;;1.58;;
25731;SDS011;13585;50.864;4.406;2023-03-31T10:46:15;7.20;;;1.70;;
25731;SDS011;13585;50.864;4.406;2023-03-31T10:48:41;5.85;;;1.73;;
25731;SDS011;13585;50.864;4.406;2023-03-31T10:53:40;5.25;;;1.63;;
25731;SDS011;13585;50.864;4.406;2023-03-31T10:56:11;5.57;;;1.90;;
25731;SDS011;13585;50.864;4.406;2023-03-31T11:07:16;10.15;;;2.13;;
25731;SDS011;13585;50.864;4.406;2023-03-31T11:20:30;5.90;;;1.88;;
25731;SDS011;13585;50.864;4.406;2023-03-31T11:23:06;5.90;;;1.85;;
25731;SDS011;13585;50.864;4.406;2023-03-31T11:28:25;6.45;;;2.03;;
25731;SDS011;13585;50.864;4.406;2023-03-31T11:33:39;5.72;;;2.10;;
25731;SDS011;13585;50.864;4.406;2023-03-31T11:36:27;5.00;;;1.90;;
25731;SDS011;13585;50.864;4.406;2023-03-31T11:41:40;6.50;;;2.47;;
25731;SDS011;13585;50.864;4.406;2023-03-31T11:44:12;7.55;;;2.10;;
25731;SDS011;13585;50.864;4.406;2023-03-31T11:49:24;5.85;;;1.80;;
25731;SDS011;13585;50.864;4.406;2023-03-31T11:52:07;6.72;;;2.20;;
25731;SDS011;13585;50.864;4.406;2023-03-31T11:57:18;5.32;;;1.92;;
25731;SDS011;13585;50.864;4.406;2023-03-31T11:59:49;7.28;;;1.80;;
25731;SDS011;13585;50.864;4.406;2023-03-31T12:02:38;6.35;;;1.83;;
25731;SDS011;13585;50.864;4.406;2023-03-31T12:05:23;3.90;;;1.48;;
25731;SDS011;13585;50.864;4.406;2023-03-31T12:08:07;3.20;;;1.55;;
25731;SDS011;13585;50.864;4.406;2023-03-31T12:11:02;6.50;;;2.13;;
25731;SDS011;13585;50.864;4.406;2023-03-31T12:13:54;7.13;;;2.00;;
25731;SDS011;13585;50.864;4.406;2023-03-31T12:19:10;5.80;;;1.83;;
25731;SDS011;13585;50.864;4.406;2023-03-31T12:21:41;5.03;;;1.90;;
25731;SDS011;13585;50.864;4.406;2023-03-31T12:24:10;6.55;;;1.60;;
25731;SDS011;13585;50.864;4.406;2023-03-31T12:29:10;4.47;;;1.67;;
25731;SDS011;13585;50.864;4.406;2023-03-31T12:31:47;5.28;;;1.95;;
25731;SDS011;13585;50.864;4.406;2023-03-31T12:34:15;4.07;;;1.50;;
25731;SDS011;13585;50.864;4.406;2023-03-31T12:36:53;5.53;;;1.95;;
25731;SDS011;13585;50.864;4.406;2023-03-31T12:39:27;4.60;;;1.73;;
25731;SDS011;13585;50.864;4.406;2023-03-31T12:55:35;3.60;;;1.50;;
25731;SDS011;13585;50.864;4.406;2023-03-31T13:03:35;5.05;;;2.22;;
25731;SDS011;13585;50.864;4.406;2023-03-31T13:06:04;4.45;;;1.60;;
25731;SDS011;13585;50.864;4.406;2023-03-31T13:08:49;4.80;;;1.73;;
25731;SDS011;13585;50.864;4.406;2023-03-31T13:11:16;4.93;;;1.65;;
25731;SDS011;13585;50.864;4.406;2023-03-31T13:13:44;5.60;;;1.80;;
25731;SDS011;13585;50.864;4.406;2023-03-31T13:16:21;5.45;;;1.58;;
25731;SDS011;13585;50.864;4.406;2023-03-31T13:18:51;3.00;;;1.50;;
25731;SDS011;13585;50.864;4.406;2023-03-31T13:21:17;3.22;;;1.40;;
25731;SDS011;13585;50.864;4.406;2023-03-31T13:23:44;4.05;;;1.40;;
25731;SDS011;13585;50.864;4.406;2023-03-31T13:34:26;5.10;;;1.55;;
25731;SDS011;13585;50.864;4.406;2023-03-31T13:36:57;7.65;;;1.70;;
25731;SDS011;13585;50.864;4.406;2023-03-31T13:48:24;4.15;;;1.40;;
25731;SDS011;13585;50.864;4.406;2023-03-31T13:56:34;4.63;;;1.42;;
25731;SDS011;13585;50.864;4.406;2023-03-31T13:59:20;4.35;;;1.20;;
25731;SDS011;13585;50.864;4.406;2023-03-31T14:08:09;2.63;;;1.17;;
25731;SDS011;13585;50.864;4.406;2023-03-31T14:10:39;2.72;;;1.25;;
25731;SDS011;13585;50.864;4.406;2023-03-31T14:15:55;3.92;;;1.25;;
25731;SDS011;13585;50.864;4.406;2023-03-31T14:18:29;2.95;;;1.15;;
25731;SDS011;13585;50.864;4.406;2023-03-31T14:23:39;4.20;;;1.40;;
25731;SDS011;13585;50.864;4.406;2023-03-31T14:31:44;3.20;;;1.30;;
25731;SDS011;13585;50.864;4.406;2023-03-31T14:37:03;4.10;;;1.27;;
25731;SDS011;13585;50.864;4.406;2023-03-31T14:39:48;3.15;;;1.20;;
25731;SDS011;13585;50.864;4.406;2023-03-31T14:42:17;2.95;;;1.17;;
25731;SDS011;13585;50.864;4.406;2023-03-31T14:44:46;4.00;;;1.30;;
25731;SDS011;13585;50.864;4.406;2023-03-31T14:47:15;2.60;;;1.00;;
25731;SDS011;13585;50.864;4.406;2023-03-31T14:49:57;1.92;;;0.88;;
25731;SDS011;13585;50.864;4.406;2023-03-31T14:52:33;3.72;;;1.10;;
25731;SDS011;13585;50.864;4.406;2023-03-31T14:54:59;3.67;;;1.13;;
25731;SDS011;13585;50.864;4.406;2023-03-31T14:57:32;2.33;;;0.90;;
25731;SDS011;13585;50.864;4.406;2023-03-31T15:00:02;2.22;;;0.95;;
25731;SDS011;13585;50.864;4.406;2023-03-31T15:02:33;2.20;;;1.05;;
25731;SDS011;13585;50.864;4.406;2023-03-31T15:05:04;2.70;;;0.80;;
25731;SDS011;13585;50.864;4.406;2023-03-31T15:07:33;3.05;;;0.80;;
25731;SDS011;13585;50.864;4.406;2023-03-31T15:10:00;3.15;;;1.00;;
25731;SDS011;13585;50.864;4.406;2023-03-31T15:12:27;2.28;;;1.05;;
25731;SDS011;13585;50.864;4.406;2023-03-31T15:14:57;2.42;;;1.00;;
25731;SDS011;13585;50.864;4.406;2023-03-31T15:17:28;2.33;;;1.10;;
25731;SDS011;13585;50.864;4.406;2023-03-31T15:19:59;2.05;;;1.00;;
25731;SDS011;13585;50.864;4.406;2023-03-31T15:22:28;2.58;;;0.82;;
25731;SDS011;13585;50.864;4.406;2023-03-31T15:24:54;3.22;;;0.98;;
25731;SDS011;13585;50.864;4.406;2023-03-31T15:27:37;3.30;;;1.00;;
25731;SDS011;13585;50.864;4.406;2023-03-31T15:30:19;1.48;;;0.70;;
25731;SDS011;13585;50.864;4.406;2023-03-31T15:32:47;1.33;;;0.70;;
25731;SDS011;13585;50.864;4.406;2023-03-31T15:35:20;2.58;;;0.90;;
25731;SDS011;13585;50.864;4.406;2023-03-31T15:37:50;1.70;;;0.60;;
25731;SDS011;13585;50.864;4.406;2023-03-31T15:40:25;2.08;;;0.80;;
25731;SDS011;13585;50.864;4.406;2023-03-31T15:42:56;1.95;;;1.00;;
25731;SDS011;13585;50.864;4.406;2023-03-31T15:48:28;1.67;;;0.77;;
25731;SDS011;13585;50.864;4.406;2023-03-31T15:50:58;2.88;;;1.10;;
25731;SDS011;13585;50.864;4.406;2023-03-31T15:53:37;1.33;;;0.65;;
25731;SDS011;13585;50.864;4.406;2023-03-31T15:56:28;2.00;;;0.80;;
25731;SDS011;13585;50.864;4.406;2023-03-31T15:58:58;2.47;;;1.00;;
25731;SDS011;13585;50.864;4.406;2023-03-31T16:01:30;2.05;;;0.93;;
25731;SDS011;13585;50.864;4.406;2023-03-31T16:04:08;1.85;;;0.70;;
25731;SDS011;13585;50.864;4.406;2023-03-31T16:10:05;2.15;;;0.88;;
25731;SDS011;13585;50.864;4.406;2023-03-31T16:12:41;2.15;;;0.70;;
25731;SDS011;13585;50.864;4.406;2023-03-31T16:15:20;2.22;;;0.82;;
25731;SDS011;13585;50.864;4.406;2023-03-31T16:18:05;2.65;;;0.70;;
25731;SDS011;13585;50.864;4.406;2023-03-31T16:20:35;1.38;;;0.75;;
25731;SDS011;13585;50.864;4.406;2023-03-31T16:23:11;1.88;;;0.70;;
25731;SDS011;13585;50.864;4.406;2023-03-31T16:25:39;2.28;;;0.63;;
25731;SDS011;13585;50.864;4.406;2023-03-31T16:28:05;2.20;;;0.90;;
25731;SDS011;13585;50.864;4.406;2023-03-31T16:30:38;3.43;;;1.10;;
25731;SDS011;13585;50.864;4.406;2023-03-31T16:33:09;1.60;;;0.73;;
25731;SDS011;13585;50.864;4.406;2023-03-31T16:35:36;1.90;;;0.98;;
25731;SDS011;13585;50.864;4.406;2023-03-31T16:38:06;2.88;;;1.00;;
25731;SDS011;13585;50.864;4.406;2023-03-31T16:40:37;4.13;;;1.00;;
25731;SDS011;13585;50.864;4.406;2023-03-31T16:43:12;3.45;;;1.10;;
25731;SDS011;13585;50.864;4.406;2023-03-31T16:45:52;4.25;;;1.30;;
25731;SDS011;13585;50.864;4.406;2023-03-31T16:48:20;3.35;;;1.20;;
25731;SDS011;13585;50.864;4.406;2023-03-31T16:50:48;5.38;;;0.90;;
25731;SDS011;13585;50.864;4.406;2023-03-31T16:53:16;2.10;;;0.80;;
25731;SDS011;13585;50.864;4.406;2023-03-31T16:55:43;3.72;;;1.02;;
25731;SDS011;13585;50.864;4.406;2023-03-31T16:58:09;3.67;;;0.65;;
25731;SDS011;13585;50.864;4.406;2023-03-31T17:00:35;2.05;;;0.77;;
25731;SDS011;13585;50.864;4.406;2023-03-31T17:03:10;1.75;;;0.90;;
25731;SDS011;13585;50.864;4.406;2023-03-31T17:05:37;1.52;;;0.60;;
25731;SDS011;13585;50.864;4.406;2023-03-31T17:08:03;2.92;;;0.90;;
25731;SDS011;13585;50.864;4.406;2023-03-31T17:10:29;2.03;;;0.75;;
25731;SDS011;13585;50.864;4.406;2023-03-31T17:12:55;1.23;;;0.68;;
25731;SDS011;13585;50.864;4.406;2023-03-31T17:15:20;2.58;;;0.80;;
25731;SDS011;13585;50.864;4.406;2023-03-31T17:17:47;2.33;;;0.85;;
25731;SDS011;13585;50.864;4.406;2023-03-31T17:20:13;2.75;;;1.05;;
25731;SDS011;13585;50.864;4.406;2023-03-31T17:22:38;4.70;;;1.05;;
25731;SDS011;13585;50.864;4.406;2023-03-31T17:25:04;3.70;;;0.95;;
25731;SDS011;13585;50.864;4.406;2023-03-31T17:27:32;2.55;;;0.90;;
25731;SDS011;13585;50.864;4.406;2023-03-31T17:29:58;3.92;;;1.27;;
25731;SDS011;13585;50.864;4.406;2023-03-31T17:32:24;3.75;;;1.60;;
25731;SDS011;13585;50.864;4.406;2023-03-31T17:34:50;6.22;;;2.25;;
25731;SDS011;13585;50.864;4.406;2023-03-31T17:37:16;10.20;;;3.30;;
25731;SDS011;13585;50.864;4.406;2023-03-31T17:39:43;8.82;;;2.70;;
25731;SDS011;13585;50.864;4.406;2023-03-31T17:42:09;8.95;;;2.17;;
25731;SDS011;13585;50.864;4.406;2023-03-31T17:44:35;8.90;;;2.40;;
25731;SDS011;13585;50.864;4.406;2023-03-31T17:47:01;8.60;;;2.05;;
25731;SDS011;13585;50.864;4.406;2023-03-31T17:49:27;10.57;;;2.25;;
25731;SDS011;13585;50.864;4.406;2023-03-31T17:51:53;6.40;;;2.05;;
25731;SDS011;13585;50.864;4.406;2023-03-31T17:54:18;7.40;;;2.10;;
25731;SDS011;13585;50.864;4.406;2023-03-31T17:56:45;9.05;;;2.42;;
25731;SDS011;13585;50.864;4.406;2023-03-31T17:59:14;6.13;;;1.73;;
25731;SDS011;13585;50.864;4.406;2023-03-31T18:01:40;8.73;;;1.98;;
25731;SDS011;13585;50.864;4.406;2023-03-31T18:04:06;7.68;;;2.13;;
25731;SDS011;13585;50.864;4.406;2023-03-31T18:06:31;4.53;;;1.52;;
25731;SDS011;13585;50.864;4.406;2023-03-31T18:08:58;4.57;;;1.77;;
25731;SDS011;13585;50.864;4.406;2023-03-31T18:11:23;7.03;;;1.60;;
25731;SDS011;13585;50.864;4.406;2023-03-31T18:13:50;6.45;;;2.10;;